createdAt,value
2023-03-04T00:05:03.614Z,-0.70
2023-03-04T00:10:09.057Z,-0.50
2023-03-04T00:15:13.513Z,-0.60
2023-03-04T00:20:16.891Z,-0.70
2023-03-04T00:25:21.422Z,-0.70
2023-03-04T00:30:24.650Z,-0.70
2023-03-04T00:35:29.143Z,-0.70
2023-03-04T00:40:34.041Z,-0.90
2023-03-04T00:45:37.429Z,-1.00
2023-03-04T00:50:40.726Z,-0.80
2023-03-04T00:55:45.430Z,-0.80
2023-03-04T01:00:48.706Z,-1.00
2023-03-04T01:05:53.763Z,-1.30
2023-03-04T01:10:58.907Z,-1.50
2023-03-04T01:16:03.538Z,-1.50
2023-03-04T01:21:07.863Z,-1.40
2023-03-04T01:26:12.842Z,-1.40
2023-03-04T01:31:16.928Z,-1.50
2023-03-04T01:36:21.312Z,-1.30
2023-03-04T01:41:27.067Z,-1.20
2023-03-04T01:46:30.342Z,-1.20
2023-03-04T01:51:34.742Z,-1.40
2023-03-04T01:56:39.841Z,-1.40
2023-03-04T02:01:44.993Z,-1.50
2023-03-04T02:06:48.245Z,-1.60
2023-03-04T02:11:53.421Z,-1.60
2023-03-04T02:16:56.902Z,-1.60
2023-03-04T02:22:01.077Z,-1.30
2023-03-04T02:27:06.273Z,-1.50
2023-03-04T02:32:12.359Z,-1.30
2023-03-04T02:37:16.204Z,-1.30
2023-03-04T02:42:21.975Z,-1.20
2023-03-04T02:47:25.650Z,-1.10
2023-03-04T02:52:32.570Z,-1.00
2023-03-04T02:57:37.404Z,-1.20
2023-03-04T03:02:40.797Z,-1.20
2023-03-04T03:07:44.962Z,-1.40
2023-03-04T03:12:50.551Z,-1.40
2023-03-04T03:17:53.765Z,-1.20
2023-03-04T03:22:56.937Z,-1.20
2023-03-04T03:28:01.656Z,-1.20
2023-03-04T03:33:05.110Z,-0.90
2023-03-04T03:38:08.997Z,-0.80
2023-03-04T03:43:14.165Z,-1.00
2023-03-04T03:48:18.042Z,-1.20
2023-03-04T03:53:21.300Z,-0.70
2023-03-04T03:58:26.970Z,-0.50
2023-03-04T04:03:30.925Z,-0.30
2023-03-04T04:08:34.507Z,-0.30
2023-03-04T04:13:39.738Z,-0.50
2023-03-04T04:18:43.076Z,-0.50
2023-03-04T04:23:46.155Z,-0.50
2023-03-04T04:28:51.116Z,-0.50
2023-03-04T04:33:55.728Z,-0.30
2023-03-04T04:38:59.465Z,-0.20
2023-03-04T04:44:04.108Z,-0.50
2023-03-04T04:49:08.181Z,-0.50
2023-03-04T04:54:12.136Z,-0.40
2023-03-04T04:59:16.846Z,-0.10
2023-03-04T05:04:20.711Z,-0.30
2023-03-04T05:09:26.538Z,-0.30
2023-03-04T05:31:00.295Z,-0.10
2023-03-04T05:36:03.675Z,-0.20
2023-03-04T05:41:08.384Z,-0.10
2023-03-04T05:46:16.153Z,0.00
2023-03-04T05:51:20.280Z,-0.10
2023-03-04T05:56:26.754Z,0.00
2023-03-04T06:01:32.534Z,-0.10
2023-03-04T06:06:36.427Z,-0.10
2023-03-04T06:11:39.877Z,0.10
2023-03-04T06:16:45.035Z,0.20
2023-03-04T06:21:48.630Z,0.10
2023-03-04T06:26:52.058Z,0.20
2023-03-04T06:31:58.048Z,0.10
2023-03-04T06:37:02.076Z,0.20
2023-03-04T06:42:05.609Z,0.30
2023-03-04T06:47:10.606Z,0.20
2023-03-04T06:52:13.756Z,0.30
2023-03-04T06:57:17.951Z,0.20
2023-03-04T07:02:23.831Z,0.20
2023-03-04T07:07:27.525Z,0.30
2023-03-04T07:12:30.900Z,0.60
2023-03-04T07:17:35.980Z,0.50
2023-03-04T07:22:39.244Z,0.60
2023-03-04T07:27:44.085Z,0.80
2023-03-04T07:32:50.455Z,0.70
2023-03-04T07:37:54.392Z,0.70
2023-03-04T07:42:58.112Z,1.00
2023-03-04T07:48:05.118Z,0.90
2023-03-04T07:53:08.956Z,0.90
2023-03-04T07:58:12.708Z,1.00
2023-03-04T08:03:18.290Z,1.00
2023-03-04T08:08:22.243Z,1.20
2023-03-04T08:13:26.748Z,1.00
2023-03-04T08:18:32.741Z,1.30
2023-03-04T08:23:36.335Z,1.40
2023-03-04T08:28:40.613Z,1.60
2023-03-04T08:33:45.700Z,1.90
2023-03-04T08:38:52.874Z,1.90
2023-03-04T08:43:57.286Z,2.20
2023-03-04T08:49:02.572Z,2.10
2023-03-04T08:54:06.525Z,2.30
2023-03-04T08:59:10.062Z,2.20
2023-03-04T09:04:14.738Z,2.40
2023-03-04T09:09:21.518Z,2.40
2023-03-04T09:14:27.412Z,2.80
2023-03-04T09:19:34.879Z,3.10
2023-03-04T09:24:38.249Z,3.40
2023-03-04T09:29:43.284Z,3.20
2023-03-04T09:34:48.655Z,3.50
2023-03-04T09:39:52.461Z,3.50
2023-03-04T09:44:58.961Z,3.50
2023-03-04T09:50:05.100Z,3.90
2023-03-04T09:55:17.821Z,4.00
2023-03-04T10:00:24.411Z,4.20
2023-03-04T10:05:29.588Z,4.50
2023-03-04T10:10:35.418Z,4.30
2023-03-04T10:15:40.539Z,4.30
2023-03-04T10:20:51.426Z,4.40
2023-03-04T10:25:57.377Z,4.60
2023-03-04T10:31:03.334Z,4.40
2023-03-04T10:36:20.665Z,5.00
2023-03-04T10:41:26.300Z,5.10
2023-03-04T10:46:30.115Z,5.20
2023-03-04T10:51:39.933Z,5.10
2023-03-04T10:56:54.607Z,5.00
2023-03-04T11:02:03.174Z,5.10
2023-03-04T11:07:12.288Z,5.40
2023-03-04T11:12:16.400Z,5.60
2023-03-04T11:17:22.747Z,5.60
2023-03-04T11:22:28.634Z,5.50
2023-03-04T11:27:45.882Z,5.60
2023-03-04T11:32:50.192Z,6.10
2023-03-04T11:38:00.401Z,6.60
2023-03-04T11:43:05.808Z,7.50
2023-03-04T11:48:11.441Z,7.60
2023-03-04T11:53:40.966Z,6.80
2023-03-04T11:59:03.973Z,6.60
2023-03-04T12:04:42.344Z,6.60
2023-03-04T12:09:59.497Z,6.90
2023-03-04T12:15:11.032Z,6.80
2023-03-04T12:20:33.797Z,6.50
2023-03-04T12:26:01.188Z,6.40
2023-03-04T12:31:20.037Z,6.80
2023-03-04T12:36:42.449Z,7.00
2023-03-04T12:42:12.690Z,6.70
2023-03-04T12:47:32.701Z,6.70
2023-03-04T12:52:45.026Z,6.40
2023-03-04T13:51:53.496Z,6.70
2023-03-04T13:57:13.188Z,7.10
2023-03-04T14:02:20.218Z,7.30
2023-03-04T14:07:29.194Z,7.30
2023-03-04T14:12:33.381Z,7.30
2023-03-04T14:17:37.627Z,7.30
2023-03-04T14:22:42.807Z,7.30
2023-03-04T14:27:46.515Z,7.30
2023-03-04T14:32:50.100Z,7.20
2023-03-04T14:37:58.292Z,7.10
2023-03-04T14:43:05.056Z,7.00
2023-03-04T14:48:09.015Z,7.10
2023-03-04T14:53:17.907Z,7.20
2023-03-04T14:58:23.018Z,7.10
2023-03-04T15:03:27.649Z,7.00
2023-03-04T15:08:37.542Z,7.10
2023-03-04T15:13:41.984Z,7.10
2023-03-04T15:18:57.765Z,7.20
2023-03-04T15:24:04.624Z,7.10
2023-03-04T15:29:13.723Z,7.20
2023-03-04T15:34:18.220Z,7.10
2023-03-04T15:39:27.645Z,7.10
2023-03-04T15:44:31.285Z,6.90
2023-03-04T15:49:34.572Z,6.90
2023-03-04T15:54:41.959Z,6.90
2023-03-04T15:59:46.602Z,6.60
2023-03-04T16:04:53.765Z,6.60
2023-03-04T16:10:02.662Z,6.70
2023-03-04T16:15:13.435Z,6.90
2023-03-04T16:20:20.570Z,7.00
2023-03-04T16:25:25.391Z,6.90
2023-03-04T16:30:28.869Z,6.80
2023-03-04T16:35:35.006Z,6.70
2023-03-04T16:40:41.522Z,6.90
2023-03-04T16:45:45.206Z,6.60
2023-03-04T16:50:52.449Z,6.70
2023-03-04T16:56:00.191Z,6.90
2023-03-04T17:01:03.899Z,6.70
2023-03-04T17:06:08.584Z,7.10
2023-03-04T17:11:16.412Z,6.90
2023-03-04T17:16:20.962Z,6.70
2023-03-04T17:21:26.169Z,6.50
2023-03-04T17:26:31.074Z,6.40
2023-03-04T17:31:35.590Z,6.50
2023-03-04T17:36:39.466Z,6.60
2023-03-04T17:41:47.294Z,6.60
2023-03-04T17:46:52.172Z,6.40
2023-03-04T17:51:55.662Z,6.40
2023-03-04T17:57:01.473Z,6.50
2023-03-04T18:02:05.947Z,6.90
2023-03-04T18:07:11.453Z,6.90
2023-03-04T18:12:17.992Z,6.90
2023-03-04T18:17:22.036Z,6.80
2023-03-04T18:22:25.926Z,6.60
2023-03-04T18:27:31.906Z,7.10
2023-03-04T18:32:50.993Z,6.60
2023-03-04T18:37:58.452Z,6.30
2023-03-04T18:43:10.002Z,6.20
2023-03-04T18:48:14.678Z,6.30
2023-03-04T18:53:18.639Z,6.40
2023-03-04T18:58:24.045Z,6.80
2023-03-04T19:03:28.235Z,6.20
2023-03-04T19:08:31.795Z,6.00
2023-03-04T19:13:37.310Z,6.00
2023-03-04T19:18:49.524Z,6.20
2023-03-04T19:23:57.163Z,6.50
2023-03-04T19:29:03.195Z,6.10
2023-03-04T19:34:14.223Z,5.90
2023-03-04T19:39:20.272Z,5.90
2023-03-04T19:44:25.522Z,5.90
2023-03-04T19:49:29.013Z,6.00
2023-03-04T19:54:33.234Z,6.00
2023-03-04T19:59:41.102Z,5.80
2023-03-04T20:04:45.335Z,5.60
2023-03-04T20:09:50.149Z,6.40
2023-03-04T20:14:55.644Z,6.40
2023-03-04T20:19:59.860Z,6.00
2023-03-04T20:25:04.302Z,6.00
2023-03-04T20:30:10.889Z,6.40
2023-03-04T20:35:15.254Z,6.30
2023-03-04T20:40:19.033Z,6.30
2023-03-04T20:45:25.079Z,6.30
2023-03-04T20:50:30.882Z,6.00
2023-03-04T20:55:33.999Z,5.70
2023-03-04T21:00:39.683Z,5.80
2023-03-04T21:05:44.684Z,6.10
2023-03-04T21:10:50.655Z,5.80
2023-03-04T21:15:58.647Z,5.50
2023-03-04T21:21:02.261Z,5.60
2023-03-04T21:26:06.757Z,5.60
2023-03-04T21:31:14.896Z,5.80
2023-03-04T21:36:19.095Z,5.50
2023-03-04T21:41:25.380Z,6.10
2023-03-04T21:46:31.045Z,6.10
2023-03-04T21:51:35.006Z,6.00
2023-03-04T21:56:39.219Z,5.70
2023-03-04T22:01:44.451Z,5.60
2023-03-04T22:06:49.059Z,6.00
2023-03-04T22:11:52.330Z,5.80
2023-03-04T22:17:00.051Z,5.50
2023-03-04T22:22:03.675Z,5.70
2023-03-04T22:27:07.816Z,5.60
2023-03-04T22:32:15.330Z,5.40
2023-03-04T22:37:21.155Z,5.80
2023-03-04T22:42:25.052Z,5.50
2023-03-04T22:47:29.715Z,5.50
2023-03-04T22:52:33.115Z,5.40
2023-03-04T22:57:37.010Z,5.40
2023-03-04T23:02:45.426Z,5.40
2023-03-04T23:07:48.938Z,5.40
2023-03-04T23:12:54.963Z,5.40
2023-03-04T23:18:00.438Z,5.40
2023-03-04T23:23:04.274Z,5.40
2023-03-04T23:28:07.407Z,5.40
2023-03-04T23:33:12.916Z,5.30
2023-03-04T23:38:17.134Z,5.40
2023-03-04T23:43:20.500Z,5.20
2023-03-04T23:48:25.383Z,5.20
2023-03-04T23:53:28.811Z,5.20
2023-03-04T23:58:33.911Z,5.20
